createdAt,value
2022-12-27T00:00:53.324Z,101044.44
2022-12-27T00:03:20.660Z,101044.63
2022-12-27T00:05:48.508Z,101042.28
2022-12-27T00:08:15.955Z,101048.66
2022-12-27T00:10:42.807Z,101039.16
2022-12-27T00:13:09.598Z,101042.03
2022-12-27T00:15:37.025Z,101038.50
2022-12-27T00:18:03.913Z,101045.84
2022-12-27T00:20:30.715Z,101054.06
2022-12-27T00:23:01.273Z,101050.75
2022-12-27T00:25:28.177Z,101055.41
2022-12-27T00:27:55.414Z,101057.34
2022-12-27T00:30:22.232Z,101076.19
2022-12-27T00:32:49.022Z,101077.34
2022-12-27T00:35:16.067Z,101078.44
2022-12-27T00:37:42.829Z,101077.56
2022-12-27T00:40:10.969Z,101080.34
2022-12-27T00:42:37.798Z,101080.25
2022-12-27T00:45:05.943Z,101077.75
2022-12-27T00:47:32.800Z,101077.75
2022-12-27T00:49:59.591Z,101075.38
2022-12-27T00:52:26.503Z,101075.38
2022-12-27T00:54:53.304Z,101072.91
2022-12-27T00:57:20.057Z,101077.59
2022-12-27T00:59:47.917Z,101074.25
2022-12-27T01:02:14.843Z,101078.16
2022-12-27T01:04:41.842Z,101080.00
2022-12-27T01:07:08.669Z,101078.47
2022-12-27T01:09:35.564Z,101073.16
2022-12-27T01:12:02.541Z,101066.94
2022-12-27T01:14:29.348Z,101076.75
2022-12-27T01:16:56.234Z,101063.59
2022-12-27T01:19:23.012Z,101068.94
2022-12-27T01:21:49.856Z,101076.00
2022-12-27T01:24:16.956Z,101075.25
2022-12-27T01:26:43.765Z,101062.75
2022-12-27T01:29:13.133Z,101079.72
2022-12-27T01:31:40.353Z,101081.63
2022-12-27T01:34:07.236Z,101084.28
2022-12-27T01:36:34.421Z,101084.38
2022-12-27T01:39:01.536Z,101080.09
2022-12-27T01:41:55.398Z,101082.97
2022-12-27T01:44:40.960Z,101085.63
2022-12-27T01:47:35.204Z,101091.13
2022-12-27T01:50:39.656Z,101098.97
2022-12-27T01:53:21.144Z,101108.00
2022-12-27T01:56:19.655Z,101102.09
2022-12-27T01:59:01.495Z,101096.94
2022-12-27T02:01:36.452Z,101100.66
2022-12-27T02:04:15.302Z,101087.44
2022-12-27T02:06:42.948Z,101093.69
2022-12-27T02:09:14.799Z,101100.84
2022-12-27T02:11:53.079Z,101101.91
2022-12-27T02:14:35.811Z,101098.28
2022-12-27T02:17:08.862Z,101105.41
2022-12-27T02:19:41.681Z,101101.91
2022-12-27T02:22:53.230Z,101095.69
2022-12-27T02:25:35.092Z,101108.09
2022-12-27T02:28:29.781Z,101102.75
2022-12-27T02:31:07.352Z,101090.19
2022-12-27T02:33:44.015Z,101099.78
2022-12-27T02:36:18.289Z,101107.91
2022-12-27T02:38:51.646Z,101093.44
2022-12-27T02:41:38.390Z,101091.72
2022-12-27T02:44:23.717Z,101092.47
2022-12-27T02:47:11.149Z,101093.22
2022-12-27T02:50:02.546Z,101091.53
2022-12-27T02:53:07.240Z,101090.78
2022-12-27T02:56:09.011Z,101091.53
2022-12-27T02:59:08.012Z,101092.19
2022-12-27T03:02:37.687Z,101087.72
2022-12-27T03:06:08.902Z,101084.66
2022-12-27T03:08:49.933Z,101075.72
2022-12-27T03:11:35.896Z,101079.91
2022-12-27T03:14:46.844Z,101081.81
2022-12-27T03:17:32.929Z,101083.31
2022-12-27T03:20:26.164Z,101074.47
2022-12-27T03:23:14.334Z,101069.22
2022-12-27T03:25:43.856Z,101061.16
2022-12-27T03:28:37.645Z,101063.91
2022-12-27T03:31:31.387Z,101063.91
2022-12-27T03:34:24.793Z,101064.97
2022-12-27T03:37:12.953Z,101067.72
2022-12-27T03:39:50.532Z,101063.31
2022-12-27T03:42:43.743Z,101064.28
2022-12-27T03:45:11.354Z,101056.38
2022-12-27T03:47:49.439Z,101053.63
2022-12-27T03:50:45.157Z,101055.53
2022-12-27T03:53:21.301Z,101060.00
2022-12-27T03:55:48.943Z,101061.81
2022-12-27T03:58:16.345Z,101058.38
2022-12-27T04:00:43.163Z,101054.00
2022-12-27T04:03:09.978Z,101055.16
2022-12-27T04:05:36.758Z,101051.53
2022-12-27T04:08:22.091Z,101056.13
2022-12-27T04:11:07.675Z,101055.34
2022-12-27T04:13:53.226Z,101059.94
2022-12-27T04:16:39.056Z,101059.34
2022-12-27T04:19:24.550Z,101040.88
2022-12-27T04:22:09.661Z,101035.00
2022-12-27T04:24:55.353Z,101036.09
2022-12-27T04:27:40.736Z,101035.00
2022-12-27T04:30:27.342Z,101040.13
2022-12-27T04:33:12.606Z,101032.69
2022-12-27T04:35:39.459Z,101026.88
2022-12-27T04:38:06.282Z,101026.41
2022-12-27T04:40:51.531Z,101026.00
2022-12-27T04:43:37.019Z,101021.91
2022-12-27T04:46:22.603Z,101013.69
2022-12-27T04:49:07.837Z,101015.09
2022-12-27T04:51:53.235Z,101009.59
2022-12-27T04:54:40.767Z,101003.31
2022-12-27T04:57:07.746Z,101003.84
2022-12-27T04:59:53.012Z,101002.06
2022-12-27T05:02:20.362Z,100995.56
2022-12-27T05:04:48.856Z,101002.41
2022-12-27T05:07:34.752Z,100998.66
2022-12-27T05:10:23.576Z,101004.75
2022-12-27T05:13:08.882Z,101020.56
2022-12-27T05:15:35.681Z,101011.63
2022-12-27T05:18:02.777Z,100999.03
2022-12-27T05:20:29.813Z,100993.56
2022-12-27T05:23:15.124Z,100991.78
2022-12-27T05:25:44.165Z,100981.97
2022-12-27T05:28:12.899Z,100989.03
2022-12-27T05:30:43.765Z,100983.56
2022-12-27T05:33:11.156Z,100983.56
2022-12-27T05:35:38.897Z,100985.19
2022-12-27T05:38:06.354Z,100981.34
2022-12-27T05:40:33.615Z,100984.13
2022-12-27T05:43:02.317Z,100984.97
2022-12-27T05:45:30.298Z,100977.41
2022-12-27T05:47:58.949Z,100974.75
2022-12-27T05:50:26.547Z,100970.06
2022-12-27T05:52:53.344Z,100965.56
2022-12-27T05:55:20.148Z,100969.97
2022-12-27T05:57:46.936Z,100961.97
2022-12-27T06:00:14.715Z,100961.97
2022-12-27T06:02:42.847Z,100960.22
2022-12-27T06:05:10.746Z,100961.31
2022-12-27T06:07:39.454Z,100957.00
2022-12-27T06:10:08.493Z,100964.06
2022-12-27T06:12:35.876Z,100944.63
2022-12-27T06:15:04.396Z,100949.75
2022-12-27T06:17:31.219Z,100941.53
2022-12-27T06:19:58.161Z,100947.63
2022-12-27T06:22:25.741Z,100952.13
2022-12-27T06:24:52.630Z,100958.97
2022-12-27T06:27:19.409Z,100951.41
2022-12-27T06:29:46.607Z,100941.25
2022-12-27T06:32:13.641Z,100941.91
2022-12-27T06:34:40.473Z,100931.88
2022-12-27T06:37:07.281Z,100937.50
2022-12-27T06:39:34.065Z,100945.34
2022-12-27T06:42:00.992Z,100945.88
2022-12-27T06:44:27.861Z,100942.66
2022-12-27T06:46:54.654Z,100943.41
2022-12-27T06:49:21.461Z,100940.41
2022-12-27T06:51:52.564Z,100943.72
2022-12-27T06:54:22.683Z,100934.66
2022-12-27T06:56:49.545Z,100935.31
2022-12-27T06:59:16.346Z,100925.47
2022-12-27T07:01:43.373Z,100934.97
2022-12-27T07:04:10.938Z,100936.56
2022-12-27T07:06:38.376Z,100942.78
2022-12-27T07:09:06.392Z,100940.59
2022-12-27T07:11:35.448Z,100930.66
2022-12-27T07:14:03.536Z,100929.50
2022-12-27T07:16:31.178Z,100925.84
2022-12-27T07:18:59.653Z,100922.88
2022-12-27T07:21:29.610Z,100913.75
2022-12-27T07:23:57.276Z,100917.91
2022-12-27T07:26:28.717Z,100910.53
2022-12-27T07:28:58.764Z,100909.25
2022-12-27T07:31:29.791Z,100905.47
2022-12-27T07:33:58.131Z,100910.41
2022-12-27T07:36:28.960Z,100902.38
2022-12-27T07:38:56.052Z,100901.28
2022-12-27T07:41:23.315Z,100904.91
2022-12-27T07:43:50.210Z,100894.09
2022-12-27T07:46:20.705Z,100890.59
2022-12-27T07:48:48.190Z,100902.25
2022-12-27T07:51:17.902Z,100900.44
2022-12-27T07:53:45.132Z,100895.94
2022-12-27T07:56:26.092Z,100890.59
2022-12-27T07:58:56.708Z,100886.81
2022-12-27T08:01:26.463Z,100884.69
2022-12-27T08:03:54.059Z,100888.94
2022-12-27T08:06:32.091Z,100887.00
2022-12-27T08:09:03.956Z,100889.66
2022-12-27T08:11:31.404Z,100882.41
2022-12-27T08:13:58.195Z,100884.84
2022-12-27T08:16:26.548Z,100882.91
2022-12-27T08:18:53.826Z,100876.25
2022-12-27T08:21:20.769Z,100877.84
2022-12-27T08:23:47.677Z,100876.88
2022-12-27T08:26:14.568Z,100879.44
2022-12-27T08:28:41.728Z,100888.41
2022-12-27T08:31:11.314Z,100880.91
2022-12-27T08:33:39.496Z,100881.66
2022-12-27T08:36:44.702Z,100876.19
2022-12-27T08:38:56.121Z,100874.03
2022-12-27T08:41:23.662Z,100859.66
2022-12-27T08:43:50.815Z,100864.16
2022-12-27T08:46:19.879Z,100858.50
2022-12-27T08:48:49.018Z,100866.38
2022-12-27T08:51:23.440Z,100863.25
2022-12-27T08:53:57.547Z,100862.03
2022-12-27T08:56:25.088Z,100855.47
2022-12-27T08:58:52.149Z,100865.09
2022-12-27T09:01:19.136Z,100853.31
2022-12-27T09:03:46.038Z,100847.59
2022-12-27T09:06:20.508Z,100854.41
2022-12-27T09:08:49.185Z,100839.06
2022-12-27T09:11:21.621Z,100813.91
2022-12-27T09:13:49.092Z,100817.78
2022-12-27T09:16:24.358Z,100813.31
2022-12-27T09:18:53.830Z,100812.09
2022-12-27T09:21:23.597Z,100807.22
2022-12-27T09:23:52.212Z,100793.22
2022-12-27T09:26:26.571Z,100806.25
2022-12-27T09:28:54.427Z,100791.50
2022-12-27T09:31:22.900Z,100781.16
2022-12-27T09:33:50.043Z,100782.63
2022-12-27T09:36:20.730Z,100777.75
2022-12-27T09:38:48.755Z,100786.84
2022-12-27T09:42:45.853Z,100792.59
2022-12-27T09:44:46.480Z,100788.44
2022-12-27T09:47:22.543Z,100788.16
2022-12-27T09:49:54.681Z,100779.50
2022-12-27T09:52:35.586Z,100764.84
2022-12-27T09:55:16.500Z,100758.41
2022-12-27T09:57:45.666Z,100749.13
2022-12-27T10:00:34.262Z,100734.47
2022-12-27T10:03:06.217Z,100737.88
2022-12-27T10:05:37.358Z,100738.47
2022-12-27T10:08:55.061Z,100713.97
2022-12-27T10:11:40.221Z,100718.22
2022-12-27T10:14:13.131Z,100730.38
2022-12-27T10:17:07.856Z,100723.88
2022-12-27T10:19:46.435Z,100716.56
2022-12-27T10:22:50.006Z,100710.69
2022-12-27T10:25:22.136Z,100714.94
2022-12-27T10:27:51.595Z,100711.88
2022-12-27T10:30:21.107Z,100705.16
2022-12-27T10:32:49.032Z,100699.25
2022-12-27T10:35:19.415Z,100693.75
2022-12-27T10:37:49.086Z,100677.22
2022-12-27T10:40:27.674Z,100681.47
2022-12-27T10:43:21.801Z,100663.41
2022-12-27T10:45:49.212Z,100662.59
2022-12-27T10:48:28.892Z,100665.28
2022-12-27T10:51:07.254Z,100658.69
2022-12-27T10:53:36.572Z,100651.06
2022-12-27T10:56:28.035Z,100640.06
2022-12-27T10:59:12.021Z,100630.75
2022-12-27T11:01:39.469Z,100624.97
2022-12-27T11:04:21.352Z,100610.41
2022-12-27T11:07:08.218Z,100617.75
2022-12-27T11:09:46.450Z,100603.78
2022-12-27T11:12:24.381Z,100600.81
2022-12-27T11:15:20.326Z,100593.34
2022-12-27T11:17:51.041Z,100583.31
2022-12-27T11:20:22.683Z,100585.00
2022-12-27T11:22:57.113Z,100583.59
2022-12-27T11:25:27.842Z,100574.56
2022-12-27T11:28:14.485Z,100573.69
2022-12-27T11:30:42.057Z,100558.84
2022-12-27T11:33:37.608Z,100557.16
2022-12-27T11:36:06.679Z,100546.56
2022-12-27T11:38:37.152Z,100535.81
2022-12-27T11:41:26.088Z,100532.16
2022-12-27T11:44:00.809Z,100518.00
2022-12-27T11:46:57.075Z,100522.53
2022-12-27T11:49:36.771Z,100511.19
2022-12-27T11:52:03.685Z,100512.03
2022-12-27T11:55:12.762Z,100500.16
2022-12-27T11:58:13.674Z,100503.56
2022-12-27T12:01:28.780Z,100494.50
2022-12-27T12:04:29.649Z,100487.13
2022-12-27T12:07:21.259Z,100494.78
2022-12-27T12:10:39.009Z,100486.84
2022-12-27T12:13:17.674Z,100465.91
2022-12-27T12:16:15.844Z,100466.47
2022-12-27T12:19:01.471Z,100434.91
2022-12-27T12:22:30.195Z,100437.03
2022-12-27T12:26:06.701Z,100427.81
2022-12-27T12:29:30.430Z,100419.16
2022-12-27T12:32:51.876Z,100419.41
2022-12-27T12:36:12.394Z,100411.75
2022-12-27T12:38:52.972Z,100402.53
2022-12-27T12:41:31.785Z,100398.41
2022-12-27T12:44:37.970Z,100390.03
2022-12-27T12:47:44.810Z,100376.16
2022-12-27T12:50:57.962Z,100371.34
2022-12-27T12:53:54.687Z,100352.22
2022-12-27T12:56:50.111Z,100361.81
2022-12-27T13:00:09.871Z,100352.75
2022-12-27T13:03:18.224Z,100338.97
2022-12-27T13:06:18.342Z,100337.53
2022-12-27T13:08:57.790Z,100329.16
2022-12-27T13:11:43.825Z,100329.16
2022-12-27T13:15:06.996Z,100315.78
2022-12-27T13:17:36.916Z,100315.34
2022-12-27T13:20:22.276Z,100295.34
2022-12-27T13:23:07.647Z,100294.72
2022-12-27T13:25:48.079Z,100287.50
2022-12-27T13:29:07.161Z,100280.25
2022-12-27T13:32:04.250Z,100270.56
2022-12-27T13:35:07.443Z,100274.47
2022-12-27T13:38:04.130Z,100262.06
2022-12-27T13:41:14.627Z,100254.50
2022-12-27T13:44:19.453Z,100245.16
2022-12-27T13:47:16.400Z,100227.97
2022-12-27T13:50:18.692Z,100238.78
2022-12-27T13:53:33.285Z,100226.38
2022-12-27T13:56:55.175Z,100224.22
2022-12-27T14:00:02.941Z,100219.56
2022-12-27T14:02:33.212Z,100196.84
2022-12-27T14:05:05.858Z,100208.13
2022-12-27T14:08:01.908Z,100184.75
2022-12-27T14:10:40.926Z,100196.56
2022-12-27T14:13:10.246Z,100189.53
2022-12-27T14:15:43.036Z,100180.25
2022-12-27T14:18:12.784Z,100170.69
2022-12-27T14:20:56.923Z,100175.09
2022-12-27T14:23:44.557Z,100178.13
2022-12-27T14:26:36.180Z,100175.78
2022-12-27T14:29:27.536Z,100158.44
2022-12-27T14:32:34.508Z,100145.63
2022-12-27T14:35:28.101Z,100153.72
2022-12-27T14:38:45.864Z,100134.31
2022-12-27T14:41:18.692Z,100120.31
2022-12-27T14:44:45.285Z,100124.06
2022-12-27T14:47:29.166Z,100131.13
2022-12-27T14:50:19.717Z,100116.28
2022-12-27T14:53:09.277Z,100098.94
2022-12-27T14:56:12.824Z,100092.53
2022-12-27T14:59:13.560Z,100088.00
2022-12-27T15:02:02.034Z,100081.94
2022-12-27T15:04:53.459Z,100074.50
2022-12-27T15:07:34.328Z,100071.13
2022-12-27T15:10:31.776Z,100066.41
2022-12-27T15:13:32.434Z,100062.84
2022-12-27T15:16:28.075Z,100054.44
2022-12-27T15:19:23.786Z,100050.03
2022-12-27T15:22:15.870Z,100045.66
2022-12-27T15:25:46.532Z,100058.13
2022-12-27T15:28:58.013Z,100052.06
2022-12-27T15:31:43.897Z,100052.06
2022-12-27T15:34:43.493Z,100045.00
2022-12-27T15:37:47.780Z,100046.88
2022-12-27T15:40:32.866Z,100039.59
2022-12-27T15:43:37.417Z,100050.41
2022-12-27T15:46:28.659Z,100048.03
2022-12-27T15:49:28.245Z,100037.22
2022-12-27T15:52:16.814Z,100032.88
2022-12-27T15:54:58.710Z,100025.44
2022-12-27T15:58:11.857Z,100034.03
2022-12-27T16:00:39.612Z,100020.06
2022-12-27T16:03:33.975Z,100011.28
2022-12-27T16:06:02.095Z,100012.63
2022-12-27T16:08:39.927Z,100002.69
2022-12-27T16:11:11.054Z,99992.06
2022-12-27T16:13:49.079Z,99991.72
2022-12-27T16:16:28.766Z,99980.25
2022-12-27T16:19:40.541Z,99981.59
2022-12-27T16:22:38.344Z,99963.72
2022-12-27T16:25:31.801Z,99964.25
2022-12-27T16:28:16.705Z,99954.13
2022-12-27T16:30:53.177Z,99950.44
2022-12-27T16:33:26.444Z,99950.06
2022-12-27T16:36:11.889Z,99950.44
2022-12-27T16:39:11.534Z,99944.84
2022-12-27T16:41:50.311Z,99946.69
2022-12-27T16:44:36.246Z,99937.78
2022-12-27T16:47:39.471Z,99928.66
2022-12-27T16:50:29.259Z,99915.38
2022-12-27T16:53:49.078Z,99924.28
2022-12-27T16:56:24.337Z,99930.19
2022-12-27T16:58:52.182Z,99927.47
2022-12-27T17:01:18.995Z,99917.06
2022-12-27T17:03:49.279Z,99918.22
2022-12-27T17:06:33.144Z,99912.34
2022-12-27T17:09:09.663Z,99915.56
2022-12-27T17:11:51.590Z,99906.78
2022-12-27T17:14:34.170Z,99900.72
2022-12-27T17:17:09.364Z,99902.75
2022-12-27T17:20:08.225Z,99900.06
2022-12-27T17:22:39.632Z,99883.22
2022-12-27T17:25:15.172Z,99883.06
2022-12-27T17:28:00.228Z,99878.31
2022-12-27T17:30:44.510Z,99882.88
2022-12-27T17:33:53.718Z,99886.41
2022-12-27T17:36:34.718Z,99875.47
2022-12-27T17:39:38.950Z,99873.44
2022-12-27T17:43:01.472Z,99883.91
2022-12-27T17:46:13.377Z,99877.81
2022-12-27T17:48:40.383Z,99872.63
2022-12-27T17:51:15.252Z,99871.09
2022-12-27T17:54:13.204Z,99849.53
2022-12-27T17:57:14.689Z,99849.88
2022-12-27T17:59:49.201Z,99841.13
2022-12-27T18:02:36.731Z,99827.47
2022-12-27T18:05:12.504Z,99829.16
2022-12-27T18:07:39.979Z,99815.84
2022-12-27T18:10:24.477Z,99813.47
2022-12-27T18:13:05.202Z,99819.72
2022-12-27T18:15:36.470Z,99811.66
2022-12-27T18:18:07.673Z,99794.63
2022-12-27T18:20:38.468Z,99812.81
2022-12-27T18:23:06.276Z,99785.19
2022-12-27T18:25:49.229Z,99787.38
2022-12-27T18:28:33.900Z,99783.16
2022-12-27T18:31:13.260Z,99774.75
2022-12-27T18:33:40.075Z,99772.72
2022-12-27T18:36:15.805Z,99765.28
2022-12-27T18:38:47.073Z,99753.34
2022-12-27T18:41:19.819Z,99742.91
2022-12-27T18:43:50.392Z,99750.66
2022-12-27T18:46:29.426Z,99744.06
2022-12-27T18:48:57.050Z,99748.97
2022-12-27T18:51:38.659Z,99730.91
2022-12-27T18:54:30.010Z,99726.41
2022-12-27T18:56:59.599Z,99724.16
2022-12-27T18:59:29.291Z,99718.97
2022-12-27T19:02:00.282Z,99726.03
2022-12-27T19:04:33.051Z,99728.38
2022-12-27T19:07:14.671Z,99725.53
2022-12-27T19:09:59.986Z,99716.28
2022-12-27T19:12:38.635Z,99716.06
2022-12-27T19:15:20.631Z,99714.06
2022-12-27T19:17:50.825Z,99717.78
2022-12-27T19:20:34.971Z,99697.91
2022-12-27T19:23:39.416Z,99699.56
2022-12-27T19:26:32.104Z,99680.53
2022-12-27T19:29:06.816Z,99693.16
2022-12-27T19:31:35.524Z,99679.69
2022-12-27T19:34:09.551Z,99683.38
2022-12-27T19:36:42.971Z,99698.84
2022-12-27T19:39:22.108Z,99680.19
2022-12-27T19:41:49.800Z,99677.94
2022-12-27T19:44:17.109Z,99682.34
2022-12-27T19:46:43.937Z,99672.56
2022-12-27T19:51:58.855Z,99676.59
2022-12-27T19:54:25.970Z,99665.44
2022-12-27T19:56:53.291Z,99669.19
2022-12-27T19:59:24.181Z,99673.38
2022-12-27T20:01:52.807Z,99679.59
2022-12-27T20:04:20.049Z,99677.75
2022-12-27T20:06:48.923Z,99674.84
2022-12-27T20:09:19.147Z,99667.44
2022-12-27T20:11:48.272Z,99674.03
2022-12-27T20:14:17.676Z,99672.81
2022-12-27T20:16:46.959Z,99673.03
2022-12-27T20:19:16.655Z,99669.47
2022-12-27T20:21:43.961Z,99669.13
2022-12-27T20:24:15.116Z,99668.28
2022-12-27T20:26:43.214Z,99658.66
2022-12-27T20:29:11.334Z,99658.00
2022-12-27T20:31:44.741Z,99656.13
2022-12-27T20:34:13.048Z,99659.31
2022-12-27T20:36:41.657Z,99643.31
2022-12-27T20:39:08.579Z,99637.25
2022-12-27T20:41:35.587Z,99627.94
2022-12-27T20:44:02.710Z,99632.69
2022-12-27T20:46:29.663Z,99628.81
2022-12-27T20:48:57.110Z,99628.63
2022-12-27T20:51:33.664Z,99618.84
2022-12-27T20:54:03.096Z,99610.94
2022-12-27T20:56:30.479Z,99615.50
2022-12-27T20:58:57.736Z,99614.63
2022-12-27T21:01:28.177Z,99610.59
2022-12-27T21:03:56.859Z,99599.31
2022-12-27T21:06:27.479Z,99600.16
2022-12-27T21:08:57.789Z,99597.28
2022-12-27T21:11:31.660Z,99592.72
2022-12-27T21:14:01.459Z,99589.53
2022-12-27T21:16:32.309Z,99594.41
2022-12-27T21:19:03.576Z,99597.63
2022-12-27T21:21:33.181Z,99586.13
2022-12-27T21:24:00.414Z,99589.84
2022-12-27T21:26:33.782Z,99599.81
2022-12-27T21:29:01.766Z,99584.81
2022-12-27T21:31:30.190Z,99595.59
2022-12-27T21:33:59.546Z,99587.81
2022-12-27T21:36:31.676Z,99589.50
2022-12-27T21:38:59.098Z,99586.50
2022-12-27T21:41:33.309Z,99591.16
2022-12-27T21:44:01.007Z,99582.06
2022-12-27T21:46:31.978Z,99590.44
2022-12-27T21:49:02.173Z,99583.38
2022-12-27T21:51:31.677Z,99584.88
2022-12-27T21:53:59.251Z,99581.34
2022-12-27T21:56:26.634Z,99586.38
2022-12-27T21:58:55.998Z,99590.75
2022-12-27T22:01:26.289Z,99594.25
2022-12-27T22:03:54.816Z,99596.78
2022-12-27T22:06:37.816Z,99603.56
2022-12-27T22:09:10.113Z,99598.09
2022-12-27T22:11:39.576Z,99607.53
2022-12-27T22:14:07.055Z,99630.78
2022-12-27T22:16:39.389Z,99610.41
2022-12-27T22:19:09.195Z,99606.84
2022-12-27T22:21:37.896Z,99599.88
2022-12-27T22:24:05.883Z,99607.34
2022-12-27T22:26:37.472Z,99595.72
2022-12-27T22:29:07.947Z,99590.97
2022-12-27T22:31:38.245Z,99606.63
2022-12-27T22:34:06.206Z,99618.25
2022-12-27T22:36:34.385Z,99619.09
2022-12-27T22:39:02.019Z,99631.75
2022-12-27T22:41:35.676Z,99624.38
2022-12-27T22:44:08.751Z,99629.88
2022-12-27T22:47:24.624Z,99635.94
2022-12-27T22:49:23.366Z,99637.16
2022-12-27T22:51:50.140Z,99647.09
2022-12-27T22:54:17.099Z,99652.78
2022-12-27T22:56:44.205Z,99658.34
2022-12-27T22:59:16.520Z,99645.25
2022-12-27T23:01:46.053Z,99655.56
2022-12-27T23:04:14.134Z,99661.25
2022-12-27T23:06:42.169Z,99656.03
2022-12-27T23:09:09.868Z,99659.56
2022-12-27T23:11:41.011Z,99667.47
2022-12-27T23:14:17.023Z,99671.25
2022-12-27T23:16:47.459Z,99673.66
2022-12-27T23:19:17.772Z,99681.09
2022-12-27T23:21:45.015Z,99671.31
2022-12-27T23:24:12.679Z,99668.63
2022-12-27T23:26:40.682Z,99658.19
2022-12-27T23:29:07.675Z,99651.13
2022-12-27T23:31:34.819Z,99642.06
2022-12-27T23:34:01.825Z,99656.94
2022-12-27T23:36:31.522Z,99657.63
2022-12-27T23:38:58.483Z,99662.72
2022-12-27T23:41:26.502Z,99675.91
2022-12-27T23:43:55.791Z,99681.63
2022-12-27T23:46:33.324Z,99689.44
2022-12-27T23:49:03.599Z,99684.03
2022-12-27T23:51:31.787Z,99687.38
2022-12-27T23:53:58.771Z,99690.28
2022-12-27T23:56:32.331Z,99684.72
2022-12-27T23:59:01.592Z,99699.34
